ADDS METAR Data INFO
IDs: Format: Raw Decoded Include TAF

Data at: 1926 UTC 19 Jul 2018

METAR for:KTIX (Titusville/Space Coa, FL, US)
Text:KTIX 191852Z VRB04KT 7SM -RA SCT014 BKN035 OVC050 26/25 A2999
Temperature: 26.0°C ( 79°F)
Dewpoint: 25.0°C ( 77°F) [RH = 94%]
Pressure (altimeter):29.99 inches Hg (1015.7 mb)
Winds:variable direction winds at 5 MPH (4 knots; 2.1 m/s)
Visibility: 7 sm ( 11 km)
Ceiling:3500 feet AGL
Clouds: scattered clouds at 1400 feet AGL, broken clouds at 3500 feet AGL, overcast cloud deck at 5000 feet AGL
Weather:-RA (light rain)